sensor_id;sensor_type;location;lat;lon;timestamp;pressure;altitude;pressure_sealevel;temperature;humidity
76285;BME280;71676;50.998;7.098;2024-02-26T00:00:52;99200.25;;;6.70;50.87
76285;BME280;71676;50.998;7.098;2024-02-26T00:03:20;99193.41;;;6.72;50.73
76285;BME280;71676;50.998;7.098;2024-02-26T00:05:46;99206.22;;;6.81;50.55
76285;BME280;71676;50.998;7.098;2024-02-26T00:08:13;99210.47;;;6.79;51.37
76285;BME280;71676;50.998;7.098;2024-02-26T00:10:40;99209.59;;;6.83;50.66
76285;BME280;71676;50.998;7.098;2024-02-26T00:13:08;99204.50;;;6.75;51.14
76285;BME280;71676;50.998;7.098;2024-02-26T00:15:34;99197.72;;;6.61;51.09
76285;BME280;71676;50.998;7.098;2024-02-26T00:18:01;99191.75;;;6.53;51.65
76285;BME280;71676;50.998;7.098;2024-02-26T00:20:29;99202.00;;;6.51;52.40
76285;BME280;71676;50.998;7.098;2024-02-26T00:22:55;99181.53;;;6.44;52.14
76285;BME280;71676;50.998;7.098;2024-02-26T00:25:22;99190.88;;;6.54;52.26
76285;BME280;71676;50.998;7.098;2024-02-26T00:27:48;99190.03;;;6.58;52.02
76285;BME280;71676;50.998;7.098;2024-02-26T00:30:15;99189.16;;;6.62;52.10
76285;BME280;71676;50.998;7.098;2024-02-26T00:32:41;99191.75;;;6.65;52.24
76285;BME280;71676;50.998;7.098;2024-02-26T00:35:08;99189.19;;;6.56;52.32
76285;BME280;71676;50.998;7.098;2024-02-26T00:37:37;99186.59;;;6.59;52.55
76285;BME280;71676;50.998;7.098;2024-02-26T00:40:04;99180.66;;;6.57;52.48
76285;BME280;71676;50.998;7.098;2024-02-26T00:42:32;99183.22;;;6.43;53.29
76285;BME280;71676;50.998;7.098;2024-02-26T00:44:58;99184.94;;;6.41;52.97
76285;BME280;71676;50.998;7.098;2024-02-26T00:47:25;99173.84;;;6.34;52.83
76285;BME280;71676;50.998;7.098;2024-02-26T00:49:52;99178.09;;;6.45;52.90
76285;BME280;71676;50.998;7.098;2024-02-26T00:52:18;99168.75;;;6.39;53.53
76285;BME280;71676;50.998;7.098;2024-02-26T00:54:46;99167.88;;;6.39;53.27
76285;BME280;71676;50.998;7.098;2024-02-26T00:57:13;99170.41;;;6.45;53.44
76285;BME280;71676;50.998;7.098;2024-02-26T00:59:39;99165.28;;;6.49;53.30
76285;BME280;71676;50.998;7.098;2024-02-26T01:02:06;99171.25;;;6.53;53.45
76285;BME280;71676;50.998;7.098;2024-02-26T01:04:32;99173.84;;;6.50;53.82
76285;BME280;71676;50.998;7.098;2024-02-26T01:07:00;99176.38;;;6.53;53.73
76285;BME280;71676;50.998;7.098;2024-02-26T01:09:27;99178.09;;;6.48;53.86
76285;BME280;71676;50.998;7.098;2024-02-26T01:11:55;99175.56;;;6.36;53.86
76285;BME280;71676;50.998;7.098;2024-02-26T01:14:21;99185.81;;;6.36;55.00
76285;BME280;71676;50.998;7.098;2024-02-26T01:16:48;99178.97;;;6.34;54.69
76285;BME280;71676;50.998;7.098;2024-02-26T01:19:15;99169.59;;;6.32;54.37
76285;BME280;71676;50.998;7.098;2024-02-26T01:21:42;99180.66;;;6.43;55.12
76285;BME280;71676;50.998;7.098;2024-02-26T01:24:08;99178.09;;;6.42;54.81
76285;BME280;71676;50.998;7.098;2024-02-26T01:26:36;99177.22;;;6.46;54.81
76285;BME280;71676;50.998;7.098;2024-02-26T01:29:04;99172.13;;;6.43;55.20
76285;BME280;71676;50.998;7.098;2024-02-26T01:31:30;99167.00;;;6.46;55.58
76285;BME280;71676;50.998;7.098;2024-02-26T01:33:57;99162.75;;;6.39;55.96
76285;BME280;71676;50.998;7.098;2024-02-26T01:36:24;99167.00;;;6.40;55.40
76285;BME280;71676;50.998;7.098;2024-02-26T01:38:50;99160.19;;;6.40;55.79
76285;BME280;71676;50.998;7.098;2024-02-26T01:41:17;99167.00;;;6.43;56.53
76285;BME280;71676;50.998;7.098;2024-02-26T01:43:44;99171.28;;;6.41;56.12
76285;BME280;71676;50.998;7.098;2024-02-26T01:46:13;99166.19;;;6.39;56.03
76285;BME280;71676;50.998;7.098;2024-02-26T01:48:41;99166.19;;;6.39;56.87
76285;BME280;71676;50.998;7.098;2024-02-26T01:51:07;99156.78;;;6.32;56.41
76285;BME280;71676;50.998;7.098;2024-02-26T01:53:34;99156.75;;;6.43;56.38
76285;BME280;71676;50.998;7.098;2024-02-26T01:56:02;99146.53;;;6.33;56.78
76285;BME280;71676;50.998;7.098;2024-02-26T01:58:29;99149.09;;;6.37;57.87
76285;BME280;71676;50.998;7.098;2024-02-26T02:00:56;99155.94;;;6.38;57.10
76285;BME280;71676;50.998;7.098;2024-02-26T02:03:24;99155.09;;;6.33;57.19
76285;BME280;71676;50.998;7.098;2024-02-26T02:05:51;99155.94;;;6.42;56.87
76285;BME280;71676;50.998;7.098;2024-02-26T02:08:18;99143.97;;;6.35;57.03
76285;BME280;71676;50.998;7.098;2024-02-26T02:10:45;99147.41;;;6.37;57.43
76285;BME280;71676;50.998;7.098;2024-02-26T02:13:13;99155.09;;;6.36;57.06
76285;BME280;71676;50.998;7.098;2024-02-26T02:15:40;99153.38;;;6.33;57.70
76285;BME280;71676;50.998;7.098;2024-02-26T02:18:06;99139.75;;;6.29;57.55
76285;BME280;71676;50.998;7.098;2024-02-26T02:20:35;99150.78;;;6.36;58.14
76285;BME280;71676;50.998;7.098;2024-02-26T02:23:02;99152.53;;;6.33;57.51
76285;BME280;71676;50.998;7.098;2024-02-26T02:25:29;99149.13;;;6.24;58.26
76285;BME280;71676;50.998;7.098;2024-02-26T02:27:56;99146.56;;;6.23;57.88
76285;BME280;71676;50.998;7.098;2024-02-26T02:30:32;99150.84;;;6.21;58.65
76285;BME280;71676;50.998;7.098;2024-02-26T02:33:00;99144.03;;;6.21;58.37
76285;BME280;71676;50.998;7.098;2024-02-26T02:35:29;99141.44;;;6.26;57.93
76285;BME280;71676;50.998;7.098;2024-02-26T02:37:57;99144.00;;;6.27;58.00
76285;BME280;71676;50.998;7.098;2024-02-26T02:40:24;99136.31;;;6.27;58.50
76285;BME280;71676;50.998;7.098;2024-02-26T02:42:50;99142.31;;;6.29;58.01
76285;BME280;71676;50.998;7.098;2024-02-26T02:45:17;99139.75;;;6.29;59.13
76285;BME280;71676;50.998;7.098;2024-02-26T02:47:44;99142.31;;;6.29;58.02
76285;BME280;71676;50.998;7.098;2024-02-26T02:50:10;99147.41;;;6.22;58.05
76285;BME280;71676;50.998;7.098;2024-02-26T02:52:37;99144.84;;;6.20;58.15
76285;BME280;71676;50.998;7.098;2024-02-26T02:55:05;99135.44;;;6.12;58.75
76285;BME280;71676;50.998;7.098;2024-02-26T02:57:32;99142.28;;;6.20;59.05
76285;BME280;71676;50.998;7.098;2024-02-26T02:59:59;99140.59;;;6.22;58.16
76285;BME280;71676;50.998;7.098;2024-02-26T03:02:26;99133.78;;;6.21;58.84
76285;BME280;71676;50.998;7.098;2024-02-26T03:04:52;99144.84;;;6.23;58.61
76285;BME280;71676;50.998;7.098;2024-02-26T03:07:19;99128.66;;;6.26;58.69
76285;BME280;71676;50.998;7.098;2024-02-26T03:09:46;99130.34;;;6.22;59.02
76285;BME280;71676;50.998;7.098;2024-02-26T03:12:14;99135.47;;;6.25;59.01
76285;BME280;71676;50.998;7.098;2024-02-26T03:14:40;99138.03;;;6.25;58.71
76285;BME280;71676;50.998;7.098;2024-02-26T03:17:07;99141.47;;;6.21;59.68
76285;BME280;71676;50.998;7.098;2024-02-26T03:19:34;99143.16;;;6.21;58.99
76285;BME280;71676;50.998;7.098;2024-02-26T03:22:00;99140.56;;;6.12;59.41
76285;BME280;71676;50.998;7.098;2024-02-26T03:24:27;99141.41;;;6.14;60.05
76285;BME280;71676;50.998;7.098;2024-02-26T03:26:54;99139.72;;;6.10;60.02
76285;BME280;71676;50.998;7.098;2024-02-26T03:29:22;99140.56;;;6.15;59.85
76285;BME280;71676;50.998;7.098;2024-02-26T03:31:48;99139.72;;;6.07;60.21
76285;BME280;71676;50.998;7.098;2024-02-26T03:34:15;99141.41;;;6.15;59.59
76285;BME280;71676;50.998;7.098;2024-02-26T03:36:43;99109.88;;;5.97;60.05
76285;BME280;71676;50.998;7.098;2024-02-26T03:39:11;99137.16;;;6.14;60.10
76285;BME280;71676;50.998;7.098;2024-02-26T03:41:37;99137.19;;;6.05;59.71
76285;BME280;71676;50.998;7.098;2024-02-26T03:44:04;99129.50;;;6.08;59.62
76285;BME280;71676;50.998;7.098;2024-02-26T03:46:32;99128.63;;;6.11;60.09
76285;BME280;71676;50.998;7.098;2024-02-26T03:48:59;99144.00;;;6.05;61.37
76285;BME280;71676;50.998;7.098;2024-02-26T03:51:26;99132.88;;;6.07;60.33
76285;BME280;71676;50.998;7.098;2024-02-26T03:53:56;99127.75;;;6.10;60.61
76285;BME280;71676;50.998;7.098;2024-02-26T03:56:23;99130.34;;;6.15;61.38
76285;BME280;71676;50.998;7.098;2024-02-26T03:58:49;99132.06;;;6.08;60.64
76285;BME280;71676;50.998;7.098;2024-02-26T04:01:16;99134.63;;;6.08;60.94
76285;BME280;71676;50.998;7.098;2024-02-26T04:03:44;99135.44;;;6.09;60.73
76285;BME280;71676;50.998;7.098;2024-02-26T04:06:11;99145.69;;;6.06;60.59
76285;BME280;71676;50.998;7.098;2024-02-26T04:08:39;99149.09;;;6.05;61.35
76285;BME280;71676;50.998;7.098;2024-02-26T04:11:06;99145.69;;;6.03;61.61
76285;BME280;71676;50.998;7.098;2024-02-26T04:13:33;99150.81;;;6.00;60.98
76285;BME280;71676;50.998;7.098;2024-02-26T04:16:00;99146.56;;;5.99;61.42
76285;BME280;71676;50.998;7.098;2024-02-26T04:18:28;99097.09;;;5.73;60.93
76285;BME280;71676;50.998;7.098;2024-02-26T04:20:56;99155.09;;;6.05;61.14
76285;BME280;71676;50.998;7.098;2024-02-26T04:23:23;99155.09;;;6.05;61.35
76285;BME280;71676;50.998;7.098;2024-02-26T04:25:49;99169.56;;;6.05;60.81
76285;BME280;71676;50.998;7.098;2024-02-26T04:28:18;99171.28;;;6.04;61.07
76285;BME280;71676;50.998;7.098;2024-02-26T04:30:46;99175.56;;;6.04;61.03
76285;BME280;71676;50.998;7.098;2024-02-26T04:33:13;99176.38;;;6.10;60.98
76285;BME280;71676;50.998;7.098;2024-02-26T04:35:39;99181.50;;;6.10;61.23
76285;BME280;71676;50.998;7.098;2024-02-26T04:38:07;99183.22;;;6.05;61.30
76285;BME280;71676;50.998;7.098;2024-02-26T04:40:34;99186.63;;;6.03;61.29
76285;BME280;71676;50.998;7.098;2024-02-26T04:43:01;99194.28;;;6.09;61.71
76285;BME280;71676;50.998;7.098;2024-02-26T04:45:27;99198.59;;;6.05;61.27
76285;BME280;71676;50.998;7.098;2024-02-26T04:47:54;99195.16;;;5.96;61.64
76285;BME280;71676;50.998;7.098;2024-02-26T04:50:21;99197.72;;;6.03;61.53
76285;BME280;71676;50.998;7.098;2024-02-26T04:52:47;99202.84;;;6.09;61.10
76285;BME280;71676;50.998;7.098;2024-02-26T04:55:14;99207.13;;;6.13;61.32
76285;BME280;71676;50.998;7.098;2024-02-26T04:57:41;99207.94;;;6.15;61.40
76285;BME280;71676;50.998;7.098;2024-02-26T05:00:09;99190.88;;;6.02;61.17
76285;BME280;71676;50.998;7.098;2024-02-26T05:02:36;99210.50;;;6.14;61.71
76285;BME280;71676;50.998;7.098;2024-02-26T05:05:04;99205.38;;;6.14;62.02
76285;BME280;71676;50.998;7.098;2024-02-26T05:07:30;99204.53;;;6.10;61.43
76285;BME280;71676;50.998;7.098;2024-02-26T05:09:57;99202.84;;;6.09;61.65
76285;BME280;71676;50.998;7.098;2024-02-26T05:12:26;99200.28;;;6.12;62.37
76285;BME280;71676;50.998;7.098;2024-02-26T05:14:52;99193.47;;;6.10;62.24
76285;BME280;71676;50.998;7.098;2024-02-26T05:17:19;99190.91;;;6.13;61.93
76285;BME280;71676;50.998;7.098;2024-02-26T05:19:45;99196.03;;;6.13;62.13
76285;BME280;71676;50.998;7.098;2024-02-26T05:22:12;99178.94;;;6.03;62.38
76285;BME280;71676;50.998;7.098;2024-02-26T05:24:39;99195.16;;;6.09;62.08
76285;BME280;71676;50.998;7.098;2024-02-26T05:27:05;99173.84;;;6.00;61.92
76285;BME280;71676;50.998;7.098;2024-02-26T05:29:33;99191.72;;;6.12;62.23
76285;BME280;71676;50.998;7.098;2024-02-26T05:32:00;99188.34;;;6.08;62.03
76285;BME280;71676;50.998;7.098;2024-02-26T05:34:27;99195.16;;;6.09;62.11
76285;BME280;71676;50.998;7.098;2024-02-26T05:36:55;99196.00;;;6.01;62.73
76285;BME280;71676;50.998;7.098;2024-02-26T05:39:22;99153.31;;;5.50;64.23
76285;BME280;71676;50.998;7.098;2024-02-26T05:41:48;99202.81;;;5.94;62.66
76285;BME280;71676;50.998;7.098;2024-02-26T05:44:15;99214.78;;;6.01;62.80
76285;BME280;71676;50.998;7.098;2024-02-26T05:46:43;99209.66;;;6.06;62.69
76285;BME280;71676;50.998;7.098;2024-02-26T05:49:10;99209.66;;;5.95;62.95
76285;BME280;71676;50.998;7.098;2024-02-26T05:51:36;99199.44;;;5.89;62.46
76285;BME280;71676;50.998;7.098;2024-02-26T05:54:03;99219.03;;;5.95;62.99
76285;BME280;71676;50.998;7.098;2024-02-26T05:56:30;99225.88;;;5.96;63.02
76285;BME280;71676;50.998;7.098;2024-02-26T05:58:56;99234.38;;;5.93;63.02
76285;BME280;71676;50.998;7.098;2024-02-26T06:01:23;99230.13;;;5.92;63.31
76285;BME280;71676;50.998;7.098;2024-02-26T06:03:52;99233.53;;;6.00;62.73
76285;BME280;71676;50.998;7.098;2024-02-26T06:06:19;99229.25;;;6.02;62.62
76285;BME280;71676;50.998;7.098;2024-02-26T06:08:48;99232.69;;;6.03;62.59
76285;BME280;71676;50.998;7.098;2024-02-26T06:11:14;99242.91;;;6.00;62.81
76285;BME280;71676;50.998;7.098;2024-02-26T06:13:41;99233.53;;;6.03;62.59
76285;BME280;71676;50.998;7.098;2024-02-26T06:16:08;99242.06;;;6.01;63.16
76285;BME280;71676;50.998;7.098;2024-02-26T06:18:35;99234.41;;;6.07;62.71
76285;BME280;71676;50.998;7.098;2024-02-26T06:21:03;99243.78;;;5.99;63.16
76285;BME280;71676;50.998;7.098;2024-02-26T06:23:30;99242.06;;;5.99;62.84
76285;BME280;71676;50.998;7.098;2024-02-26T06:25:56;99247.16;;;6.01;63.18
76285;BME280;71676;50.998;7.098;2024-02-26T06:28:23;99249.72;;;6.01;63.26
76285;BME280;71676;50.998;7.098;2024-02-26T06:30:50;99247.16;;;5.98;63.16
76285;BME280;71676;50.998;7.098;2024-02-26T06:33:17;99249.72;;;5.95;63.69
76285;BME280;71676;50.998;7.098;2024-02-26T06:35:44;99246.31;;;5.91;63.80
76285;BME280;71676;50.998;7.098;2024-02-26T06:38:12;99254.00;;;6.02;63.69
76285;BME280;71676;50.998;7.098;2024-02-26T06:40:39;99253.16;;;5.98;63.29
76285;BME280;71676;50.998;7.098;2024-02-26T06:43:06;99259.09;;;5.82;63.70
76285;BME280;71676;50.998;7.098;2024-02-26T06:45:32;99271.03;;;5.86;63.82
76285;BME280;71676;50.998;7.098;2024-02-26T06:47:59;99271.00;;;5.85;63.64
76285;BME280;71676;50.998;7.098;2024-02-26T06:50:26;99275.28;;;5.81;64.30
76285;BME280;71676;50.998;7.098;2024-02-26T06:52:53;99288.09;;;5.80;64.15
76285;BME280;71676;50.998;7.098;2024-02-26T06:55:21;99288.94;;;5.85;64.72
76285;BME280;71676;50.998;7.098;2024-02-26T06:57:47;99296.59;;;5.79;65.33
76285;BME280;71676;50.998;7.098;2024-02-26T07:00:15;99289.78;;;5.78;64.22
76285;BME280;71676;50.998;7.098;2024-02-26T07:02:41;99288.91;;;5.77;64.60
76285;BME280;71676;50.998;7.098;2024-02-26T07:05:08;99291.47;;;5.77;64.56
76285;BME280;71676;50.998;7.098;2024-02-26T07:07:35;99292.34;;;5.78;64.54
76285;BME280;71676;50.998;7.098;2024-02-26T07:10:02;99300.03;;;5.84;64.64
76285;BME280;71676;50.998;7.098;2024-02-26T07:12:32;99290.66;;;5.83;64.06
76285;BME280;71676;50.998;7.098;2024-02-26T07:14:58;99300.88;;;5.81;64.58
76285;BME280;71676;50.998;7.098;2024-02-26T07:17:25;99302.56;;;5.76;65.04
76285;BME280;71676;50.998;7.098;2024-02-26T07:19:52;99306.81;;;5.77;65.25
76285;BME280;71676;50.998;7.098;2024-02-26T07:22:19;99300.00;;;5.76;65.15
76285;BME280;71676;50.998;7.098;2024-02-26T07:24:45;99309.34;;;5.71;65.36
76285;BME280;71676;50.998;7.098;2024-02-26T07:27:12;99317.91;;;5.73;65.47
76285;BME280;71676;50.998;7.098;2024-02-26T07:29:40;99313.63;;;5.74;65.63
76285;BME280;71676;50.998;7.098;2024-02-26T07:32:06;99311.94;;;5.74;65.41
76285;BME280;71676;50.998;7.098;2024-02-26T07:34:33;99311.06;;;5.75;65.49
76285;BME280;71676;50.998;7.098;2024-02-26T07:37:00;99324.72;;;5.82;65.41
76285;BME280;71676;50.998;7.098;2024-02-26T07:39:28;99314.50;;;5.77;65.60
76285;BME280;71676;50.998;7.098;2024-02-26T07:41:55;99313.59;;;5.69;65.25
76285;BME280;71676;50.998;7.098;2024-02-26T07:44:21;99320.44;;;5.70;65.15
76285;BME280;71676;50.998;7.098;2024-02-26T07:46:49;99328.13;;;5.72;66.02
76285;BME280;71676;50.998;7.098;2024-02-26T07:49:16;99325.53;;;5.69;65.38
76285;BME280;71676;50.998;7.098;2024-02-26T07:51:43;99334.06;;;5.63;65.66
76285;BME280;71676;50.998;7.098;2024-02-26T07:54:09;99332.31;;;5.61;65.96
76285;BME280;71676;50.998;7.098;2024-02-26T07:56:36;99335.75;;;5.67;65.39
76285;BME280;71676;50.998;7.098;2024-02-26T07:59:03;99342.53;;;5.53;66.03
76285;BME280;71676;50.998;7.098;2024-02-26T08:01:29;99348.50;;;5.54;66.17
76285;BME280;71676;50.998;7.098;2024-02-26T08:03:57;99339.09;;;5.51;66.34
76285;BME280;71676;50.998;7.098;2024-02-26T08:06:24;99345.94;;;5.57;66.11
76285;BME280;71676;50.998;7.098;2024-02-26T08:08:51;99345.94;;;5.54;66.42
76285;BME280;71676;50.998;7.098;2024-02-26T08:11:18;99347.72;;;5.67;65.98
76285;BME280;71676;50.998;7.098;2024-02-26T08:13:44;99352.81;;;5.68;65.58
76285;BME280;71676;50.998;7.098;2024-02-26T08:16:11;99351.09;;;5.67;65.79
76285;BME280;71676;50.998;7.098;2024-02-26T08:18:38;99359.63;;;5.69;65.72
76285;BME280;71676;50.998;7.098;2024-02-26T08:21:06;99355.38;;;5.68;66.08
76285;BME280;71676;50.998;7.098;2024-02-26T08:23:33;99354.53;;;5.66;66.04
76285;BME280;71676;50.998;7.098;2024-02-26T08:26:00;99360.50;;;5.67;65.80
76285;BME280;71676;50.998;7.098;2024-02-26T08:28:29;99359.63;;;5.65;66.50
76285;BME280;71676;50.998;7.098;2024-02-26T08:30:55;99358.75;;;5.60;66.13
76285;BME280;71676;50.998;7.098;2024-02-26T08:33:22;99367.31;;;5.69;66.01
76285;BME280;71676;50.998;7.098;2024-02-26T08:35:48;99367.31;;;5.68;66.15
76285;BME280;71676;50.998;7.098;2024-02-26T08:38:16;99377.53;;;5.71;66.02
76285;BME280;71676;50.998;7.098;2024-02-26T08:40:43;99380.09;;;5.68;66.08
76285;BME280;71676;50.998;7.098;2024-02-26T08:43:10;99370.72;;;5.65;65.92
76285;BME280;71676;50.998;7.098;2024-02-26T08:45:36;99378.38;;;5.62;66.79
76285;BME280;71676;50.998;7.098;2024-02-26T08:48:03;99376.66;;;5.61;67.19
76285;BME280;71676;50.998;7.098;2024-02-26T08:50:30;99370.66;;;5.59;66.81
76285;BME280;71676;50.998;7.098;2024-02-26T08:52:57;99375.78;;;5.56;66.66
76285;BME280;71676;50.998;7.098;2024-02-26T08:55:27;99386.84;;;5.52;67.18
76285;BME280;71676;50.998;7.098;2024-02-26T08:57:54;99382.63;;;5.60;66.70
76285;BME280;71676;50.998;7.098;2024-02-26T09:00:21;99391.13;;;5.58;67.28
76285;BME280;71676;50.998;7.098;2024-02-26T09:02:47;99390.28;;;5.54;66.95
76285;BME280;71676;50.998;7.098;2024-02-26T09:05:14;99400.41;;;5.39;67.21
76285;BME280;71676;50.998;7.098;2024-02-26T09:07:41;99403.84;;;5.44;67.11
76285;BME280;71676;50.998;7.098;2024-02-26T09:10:08;99405.56;;;5.53;66.90
76285;BME280;71676;50.998;7.098;2024-02-26T09:12:37;99407.28;;;5.49;67.24
76285;BME280;71676;50.998;7.098;2024-02-26T09:15:06;99406.41;;;5.47;67.12
76285;BME280;71676;50.998;7.098;2024-02-26T09:17:33;99409.75;;;5.40;67.58
76285;BME280;71676;50.998;7.098;2024-02-26T09:20:00;99414.03;;;5.41;67.42
76285;BME280;71676;50.998;7.098;2024-02-26T09:22:26;99411.53;;;5.50;66.94
76285;BME280;71676;50.998;7.098;2024-02-26T09:24:53;99419.19;;;5.49;66.94
76285;BME280;71676;50.998;7.098;2024-02-26T09:27:20;99417.44;;;5.42;67.70
76285;BME280;71676;50.998;7.098;2024-02-26T09:29:48;99429.31;;;5.34;67.70
76285;BME280;71676;50.998;7.098;2024-02-26T09:32:14;99433.59;;;5.36;67.61
76285;BME280;71676;50.998;7.098;2024-02-26T09:34:41;99429.38;;;5.40;67.15
76285;BME280;71676;50.998;7.098;2024-02-26T09:37:08;99422.53;;;5.39;67.06
76285;BME280;71676;50.998;7.098;2024-02-26T09:39:34;99443.91;;;5.53;66.86
76285;BME280;71676;50.998;7.098;2024-02-26T09:42:04;99442.22;;;5.53;67.39
76285;BME280;71676;50.998;7.098;2024-02-26T09:44:33;99438.81;;;5.51;67.39
76285;BME280;71676;50.998;7.098;2024-02-26T09:47:05;99447.38;;;5.59;66.44
76285;BME280;71676;50.998;7.098;2024-02-26T09:49:35;99454.22;;;5.57;66.99
76285;BME280;71676;50.998;7.098;2024-02-26T09:52:03;99449.03;;;5.51;67.17
76285;BME280;71676;50.998;7.098;2024-02-26T09:54:31;99460.13;;;5.55;66.96
76285;BME280;71676;50.998;7.098;2024-02-26T09:57:00;99451.66;;;5.62;67.32
76285;BME280;71676;50.998;7.098;2024-02-26T09:59:29;99449.16;;;5.71;66.74
76285;BME280;71676;50.998;7.098;2024-02-26T10:02:00;99457.69;;;5.71;66.47
76285;BME280;71676;50.998;7.098;2024-02-26T10:04:29;99456.81;;;5.69;66.78
76285;BME280;71676;50.998;7.098;2024-02-26T10:06:57;99467.91;;;5.67;67.12
76285;BME280;71676;50.998;7.098;2024-02-26T10:09:25;99471.25;;;5.61;67.37
76285;BME280;71676;50.998;7.098;2024-02-26T10:11:53;99463.59;;;5.61;67.01
76285;BME280;71676;50.998;7.098;2024-02-26T10:14:20;99466.19;;;5.67;66.74
76285;BME280;71676;50.998;7.098;2024-02-26T10:16:49;99470.44;;;5.65;66.74
76285;BME280;71676;50.998;7.098;2024-02-26T10:19:25;99474.75;;;5.77;66.49
76285;BME280;71676;50.998;7.098;2024-02-26T10:21:56;99483.31;;;5.79;66.91
76285;BME280;71676;50.998;7.098;2024-02-26T10:24:23;99489.31;;;5.82;66.82
76285;BME280;71676;50.998;7.098;2024-02-26T10:26:50;99490.16;;;5.83;66.80
76285;BME280;71676;50.998;7.098;2024-02-26T10:29:18;99475.63;;;5.77;67.36
76285;BME280;71676;50.998;7.098;2024-02-26T10:31:45;99492.66;;;5.75;67.27
76285;BME280;71676;50.998;7.098;2024-02-26T10:34:12;99489.25;;;5.72;67.08
76285;BME280;71676;50.998;7.098;2024-02-26T10:36:39;99491.00;;;5.80;67.05
76285;BME280;71676;50.998;7.098;2024-02-26T10:39:07;99479.03;;;5.76;67.32
76285;BME280;71676;50.998;7.098;2024-02-26T10:41:34;99491.84;;;5.79;66.88
76285;BME280;71676;50.998;7.098;2024-02-26T10:44:01;99496.13;;;5.85;66.98
76285;BME280;71676;50.998;7.098;2024-02-26T10:46:27;99496.19;;;5.94;67.00
76285;BME280;71676;50.998;7.098;2024-02-26T10:48:55;99502.13;;;5.93;67.19
76285;BME280;71676;50.998;7.098;2024-02-26T10:51:26;99501.19;;;5.77;67.14
76285;BME280;71676;50.998;7.098;2024-02-26T10:53:55;99500.44;;;5.89;67.01
76285;BME280;71676;50.998;7.098;2024-02-26T10:56:26;99514.94;;;5.94;67.54
76285;BME280;71676;50.998;7.098;2024-02-26T10:58:53;99511.56;;;5.98;66.97
76285;BME280;71676;50.998;7.098;2024-02-26T11:01:21;99515.78;;;5.90;67.14
76285;BME280;71676;50.998;7.098;2024-02-26T11:03:50;99514.09;;;5.94;67.28
76285;BME280;71676;50.998;7.098;2024-02-26T11:06:17;99524.38;;;6.00;67.12
76285;BME280;71676;50.998;7.098;2024-02-26T11:08:47;99516.72;;;6.07;67.23
76285;BME280;71676;50.998;7.098;2024-02-26T11:11:14;99517.59;;;6.08;67.05
76285;BME280;71676;50.998;7.098;2024-02-26T11:13:48;99531.28;;;6.14;67.04
76285;BME280;71676;50.998;7.098;2024-02-26T11:16:17;99525.28;;;6.14;67.10
76285;BME280;71676;50.998;7.098;2024-02-26T11:18:46;99523.66;;;6.22;67.42
76285;BME280;71676;50.998;7.098;2024-02-26T11:21:15;99532.22;;;6.24;67.14
76285;BME280;71676;50.998;7.098;2024-02-26T11:23:42;99535.63;;;6.24;67.06
76285;BME280;71676;50.998;7.098;2024-02-26T11:26:10;99534.78;;;6.25;66.88
76285;BME280;71676;50.998;7.098;2024-02-26T11:28:38;99530.53;;;6.27;66.76
76285;BME280;71676;50.998;7.098;2024-02-26T11:31:07;99532.19;;;6.19;66.85
76285;BME280;71676;50.998;7.098;2024-02-26T11:33:34;99538.19;;;6.26;67.11
76285;BME280;71676;50.998;7.098;2024-02-26T11:36:02;99536.47;;;6.25;67.41
76285;BME280;71676;50.998;7.098;2024-02-26T11:38:29;99541.66;;;6.31;66.96
76285;BME280;71676;50.998;7.098;2024-02-26T11:40:55;99550.16;;;6.33;66.75
76285;BME280;71676;50.998;7.098;2024-02-26T11:43:49;99547.66;;;6.38;67.00
76285;BME280;71676;50.998;7.098;2024-02-26T11:46:26;99548.47;;;6.38;67.04
76285;BME280;71676;50.998;7.098;2024-02-26T11:48:55;99546.72;;;6.28;66.72
76285;BME280;71676;50.998;7.098;2024-02-26T11:51:25;99551.03;;;6.30;67.24
76285;BME280;71676;50.998;7.098;2024-02-26T11:53:52;99556.13;;;6.27;68.62
76285;BME280;71676;50.998;7.098;2024-02-26T11:56:23;99553.59;;;6.35;67.98
76285;BME280;71676;50.998;7.098;2024-02-26T11:59:09;99551.94;;;6.46;67.86
76285;BME280;71676;50.998;7.098;2024-02-26T12:01:42;99563.06;;;6.51;67.40
76285;BME280;71676;50.998;7.098;2024-02-26T12:04:11;99560.50;;;6.53;67.38
76285;BME280;71676;50.998;7.098;2024-02-26T12:06:45;99560.50;;;6.56;67.70
76285;BME280;71676;50.998;7.098;2024-02-26T12:09:12;99560.50;;;6.53;67.73
76285;BME280;71676;50.998;7.098;2024-02-26T12:11:40;99562.19;;;6.54;67.63
76285;BME280;71676;50.998;7.098;2024-02-26T12:14:09;99565.66;;;6.59;67.55
76285;BME280;71676;50.998;7.098;2024-02-26T12:16:36;99561.41;;;6.67;67.18
76285;BME280;71676;50.998;7.098;2024-02-26T12:19:06;99564.00;;;6.73;67.55
76285;BME280;71676;50.998;7.098;2024-02-26T12:21:34;99557.19;;;6.79;67.50
76285;BME280;71676;50.998;7.098;2024-02-26T12:24:10;99528.00;;;6.40;67.22
76285;BME280;71676;50.998;7.098;2024-02-26T12:26:37;99581.94;;;6.73;67.88
76285;BME280;71676;50.998;7.098;2024-02-26T12:29:04;99581.91;;;6.71;67.47
76285;BME280;71676;50.998;7.098;2024-02-26T12:31:31;99585.34;;;6.76;67.88
76285;BME280;71676;50.998;7.098;2024-02-26T12:33:59;99589.66;;;6.83;67.48
76285;BME280;71676;50.998;7.098;2024-02-26T12:36:27;99596.53;;;6.92;67.48
76285;BME280;71676;50.998;7.098;2024-02-26T12:38:54;99597.38;;;6.94;67.78
76285;BME280;71676;50.998;7.098;2024-02-26T12:41:21;99594.81;;;6.91;67.18
76285;BME280;71676;50.998;7.098;2024-02-26T12:43:48;99601.66;;;6.95;67.94
76285;BME280;71676;50.998;7.098;2024-02-26T12:46:15;99609.34;;;6.98;67.47
76285;BME280;71676;50.998;7.098;2024-02-26T12:48:43;99602.53;;;6.97;67.16
76285;BME280;71676;50.998;7.098;2024-02-26T12:51:10;99617.03;;;6.92;67.62
76285;BME280;71676;50.998;7.098;2024-02-26T12:53:38;99627.28;;;6.98;67.10
76285;BME280;71676;50.998;7.098;2024-02-26T12:56:06;99620.50;;;7.04;67.02
76285;BME280;71676;50.998;7.098;2024-02-26T12:58:35;99633.31;;;7.03;67.09
76285;BME280;71676;50.998;7.098;2024-02-26T13:01:03;99624.75;;;7.04;66.98
76285;BME280;71676;50.998;7.098;2024-02-26T13:03:31;99632.44;;;7.07;67.39
76285;BME280;71676;50.998;7.098;2024-02-26T13:05:59;99628.19;;;7.10;66.31
76285;BME280;71676;50.998;7.098;2024-02-26T13:08:26;99634.19;;;7.14;66.22
76285;BME280;71676;50.998;7.098;2024-02-26T13:10:54;99639.31;;;7.15;66.85